sensor_id;sensor_type;location;lat;lon;timestamp;temperature;humidity
65559;DHT22;52203;51.998;5.140;2023-01-29T00:01:42;5.77;118.99
65559;DHT22;52203;51.998;5.140;2023-01-29T00:04:07;5.79;118.99
65559;DHT22;52203;51.998;5.140;2023-01-29T00:06:33;5.78;118.99
65559;DHT22;52203;51.998;5.140;2023-01-29T00:08:58;5.79;118.99
65559;DHT22;52203;51.998;5.140;2023-01-29T00:11:24;5.80;118.99
65559;DHT22;52203;51.998;5.140;2023-01-29T00:13:50;5.80;118.99
65559;DHT22;52203;51.998;5.140;2023-01-29T00:16:16;5.79;118.99
65559;DHT22;52203;51.998;5.140;2023-01-29T00:18:42;5.78;118.99
65559;DHT22;52203;51.998;5.140;2023-01-29T00:21:13;5.78;118.99
65559;DHT22;52203;51.998;5.140;2023-01-29T00:23:40;5.80;118.99
65559;DHT22;52203;51.998;5.140;2023-01-29T00:26:06;5.79;118.99
65559;DHT22;52203;51.998;5.140;2023-01-29T00:28:32;5.76;118.99
65559;DHT22;52203;51.998;5.140;2023-01-29T00:30:57;5.76;118.99
65559;DHT22;52203;51.998;5.140;2023-01-29T00:33:23;5.72;118.99
65559;DHT22;52203;51.998;5.140;2023-01-29T00:35:49;5.75;118.99
65559;DHT22;52203;51.998;5.140;2023-01-29T00:38:14;5.75;118.99
65559;DHT22;52203;51.998;5.140;2023-01-29T00:40:40;5.74;118.99
65559;DHT22;52203;51.998;5.140;2023-01-29T00:43:24;5.74;118.99
65559;DHT22;52203;51.998;5.140;2023-01-29T00:46:09;5.75;118.99
65559;DHT22;52203;51.998;5.140;2023-01-29T00:48:35;5.76;118.99
65559;DHT22;52203;51.998;5.140;2023-01-29T00:51:02;5.77;118.99
65559;DHT22;52203;51.998;5.140;2023-01-29T00:53:28;5.75;118.99
65559;DHT22;52203;51.998;5.140;2023-01-29T00:55:54;5.75;118.99
65559;DHT22;52203;51.998;5.140;2023-01-29T00:58:19;5.76;118.99
65559;DHT22;52203;51.998;5.140;2023-01-29T01:00:50;5.76;118.99
65559;DHT22;52203;51.998;5.140;2023-01-29T01:03:16;5.75;118.99
65559;DHT22;52203;51.998;5.140;2023-01-29T01:05:42;5.74;118.99
65559;DHT22;52203;51.998;5.140;2023-01-29T01:08:08;5.72;118.99
65559;DHT22;52203;51.998;5.140;2023-01-29T01:11:04;5.72;118.99
65559;DHT22;52203;51.998;5.140;2023-01-29T01:13:32;5.74;118.99
65559;DHT22;52203;51.998;5.140;2023-01-29T01:15:58;5.72;118.99
65559;DHT22;52203;51.998;5.140;2023-01-29T01:18:24;5.72;118.99
65559;DHT22;52203;51.998;5.140;2023-01-29T01:20:56;5.70;118.99
65559;DHT22;52203;51.998;5.140;2023-01-29T01:23:23;5.70;118.99
65559;DHT22;52203;51.998;5.140;2023-01-29T01:25:48;5.69;118.99
65559;DHT22;52203;51.998;5.140;2023-01-29T01:28:14;5.70;118.99
65559;DHT22;52203;51.998;5.140;2023-01-29T01:30:40;5.70;118.99
65559;DHT22;52203;51.998;5.140;2023-01-29T01:33:05;5.67;118.99
65559;DHT22;52203;51.998;5.140;2023-01-29T01:35:31;5.69;118.99
65559;DHT22;52203;51.998;5.140;2023-01-29T01:37:56;5.69;118.99
65559;DHT22;52203;51.998;5.140;2023-01-29T01:40:23;5.67;118.99
65559;DHT22;52203;51.998;5.140;2023-01-29T01:42:56;5.66;118.99
65559;DHT22;52203;51.998;5.140;2023-01-29T01:45:29;5.66;118.99
65559;DHT22;52203;51.998;5.140;2023-01-29T01:47:59;5.65;118.99
65559;DHT22;52203;51.998;5.140;2023-01-29T01:50:59;5.65;118.99
65559;DHT22;52203;51.998;5.140;2023-01-29T01:53:34;5.64;118.99
65559;DHT22;52203;51.998;5.140;2023-01-29T01:56:06;5.63;118.99
65559;DHT22;52203;51.998;5.140;2023-01-29T01:58:37;5.59;118.99
65559;DHT22;52203;51.998;5.140;2023-01-29T02:01:06;5.61;118.99
65559;DHT22;52203;51.998;5.140;2023-01-29T02:03:38;5.60;118.99
65559;DHT22;52203;51.998;5.140;2023-01-29T02:06:24;5.59;118.99
65559;DHT22;52203;51.998;5.140;2023-01-29T02:09:17;5.62;118.99
65559;DHT22;52203;51.998;5.140;2023-01-29T02:12:05;5.59;118.99
65559;DHT22;52203;51.998;5.140;2023-01-29T02:14:32;5.60;118.99
65559;DHT22;52203;51.998;5.140;2023-01-29T02:17:03;5.59;118.99
65559;DHT22;52203;51.998;5.140;2023-01-29T02:19:40;5.61;118.99
65559;DHT22;52203;51.998;5.140;2023-01-29T02:30:59;5.59;118.99
65559;DHT22;52203;51.998;5.140;2023-01-29T02:33:51;5.59;118.99
65559;DHT22;52203;51.998;5.140;2023-01-29T02:39:32;5.59;118.99
65559;DHT22;52203;51.998;5.140;2023-01-29T02:42:10;5.60;118.99
65559;DHT22;52203;51.998;5.140;2023-01-29T02:44:46;5.59;118.99
65559;DHT22;52203;51.998;5.140;2023-01-29T02:47:21;5.61;118.99
65559;DHT22;52203;51.998;5.140;2023-01-29T02:50:02;5.61;118.99
65559;DHT22;52203;51.998;5.140;2023-01-29T02:52:51;5.61;118.99
65559;DHT22;52203;51.998;5.140;2023-01-29T02:55:42;5.60;118.99
65559;DHT22;52203;51.998;5.140;2023-01-29T02:58:13;5.59;118.99
65559;DHT22;52203;51.998;5.140;2023-01-29T03:00:44;5.60;118.99
65559;DHT22;52203;51.998;5.140;2023-01-29T03:03:20;5.59;118.99
65559;DHT22;52203;51.998;5.140;2023-01-29T03:08:38;5.59;118.99
65559;DHT22;52203;51.998;5.140;2023-01-29T03:11:11;5.57;118.99
65559;DHT22;52203;51.998;5.140;2023-01-29T03:18:49;5.57;118.99
65559;DHT22;52203;51.998;5.140;2023-01-29T03:21:21;5.55;118.99
65559;DHT22;52203;51.998;5.140;2023-01-29T03:24:08;5.55;118.99
65559;DHT22;52203;51.998;5.140;2023-01-29T03:26:53;5.52;118.99
65559;DHT22;52203;51.998;5.140;2023-01-29T03:29:39;5.54;118.99
65559;DHT22;52203;51.998;5.140;2023-01-29T03:32:24;5.55;118.99
65559;DHT22;52203;51.998;5.140;2023-01-29T03:34:57;5.55;118.99
65559;DHT22;52203;51.998;5.140;2023-01-29T03:37:45;5.54;118.99
65559;DHT22;52203;51.998;5.140;2023-01-29T03:40:12;5.56;118.99
65559;DHT22;52203;51.998;5.140;2023-01-29T03:56:03;5.52;118.99
65559;DHT22;52203;51.998;5.140;2023-01-29T03:58:59;5.51;118.99
65559;DHT22;52203;51.998;5.140;2023-01-29T04:02:17;5.51;118.99
65559;DHT22;52203;51.998;5.140;2023-01-29T04:04:44;5.53;118.99
65559;DHT22;52203;51.998;5.140;2023-01-29T04:07:20;5.51;118.99
65559;DHT22;52203;51.998;5.140;2023-01-29T04:09:59;5.51;118.99
65559;DHT22;52203;51.998;5.140;2023-01-29T04:12:29;5.49;118.99
65559;DHT22;52203;51.998;5.140;2023-01-29T04:14:59;5.48;118.99
65559;DHT22;52203;51.998;5.140;2023-01-29T04:17:33;5.49;118.99
65559;DHT22;52203;51.998;5.140;2023-01-29T04:20:00;5.48;118.99
65559;DHT22;52203;51.998;5.140;2023-01-29T04:22:34;5.46;118.99
65559;DHT22;52203;51.998;5.140;2023-01-29T04:25:05;5.45;118.99
65559;DHT22;52203;51.998;5.140;2023-01-29T04:35:06;5.43;118.99
65559;DHT22;52203;51.998;5.140;2023-01-29T04:37:41;5.42;118.99
65559;DHT22;52203;51.998;5.140;2023-01-29T04:43:18;5.38;118.99
65559;DHT22;52203;51.998;5.140;2023-01-29T04:49:21;5.42;118.99
65559;DHT22;52203;51.998;5.140;2023-01-29T04:51:34;5.40;118.99
65559;DHT22;52203;51.998;5.140;2023-01-29T04:54:25;5.41;118.99
65559;DHT22;52203;51.998;5.140;2023-01-29T04:57:01;5.40;118.99
65559;DHT22;52203;51.998;5.140;2023-01-29T04:59:38;5.40;118.99
65559;DHT22;52203;51.998;5.140;2023-01-29T05:02:06;5.40;118.99
65559;DHT22;52203;51.998;5.140;2023-01-29T05:04:34;5.40;118.99
65559;DHT22;52203;51.998;5.140;2023-01-29T05:07:03;5.40;118.99
65559;DHT22;52203;51.998;5.140;2023-01-29T05:09:30;5.39;118.99
65559;DHT22;52203;51.998;5.140;2023-01-29T05:11:57;5.39;118.99
65559;DHT22;52203;51.998;5.140;2023-01-29T05:14:23;5.38;118.99
65559;DHT22;52203;51.998;5.140;2023-01-29T05:16:52;5.37;118.99
65559;DHT22;52203;51.998;5.140;2023-01-29T05:19:20;5.38;118.99
65559;DHT22;52203;51.998;5.140;2023-01-29T05:21:48;5.34;118.99
65559;DHT22;52203;51.998;5.140;2023-01-29T05:24:17;5.34;118.99
65559;DHT22;52203;51.998;5.140;2023-01-29T05:26:45;5.36;118.99
65559;DHT22;52203;51.998;5.140;2023-01-29T05:29:29;5.35;118.99
65559;DHT22;52203;51.998;5.140;2023-01-29T05:31:55;5.34;118.99
65559;DHT22;52203;51.998;5.140;2023-01-29T05:34:21;5.34;118.99
65559;DHT22;52203;51.998;5.140;2023-01-29T05:36:46;5.31;118.99
65559;DHT22;52203;51.998;5.140;2023-01-29T05:39:12;5.31;118.99
65559;DHT22;52203;51.998;5.140;2023-01-29T05:41:37;5.31;118.99
65559;DHT22;52203;51.998;5.140;2023-01-29T05:44:09;5.33;118.99
65559;DHT22;52203;51.998;5.140;2023-01-29T05:46:37;5.33;118.99
65559;DHT22;52203;51.998;5.140;2023-01-29T05:49:03;5.32;118.99
65559;DHT22;52203;51.998;5.140;2023-01-29T05:51:29;5.33;118.99
65559;DHT22;52203;51.998;5.140;2023-01-29T05:53:55;5.33;118.99
65559;DHT22;52203;51.998;5.140;2023-01-29T05:56:21;5.35;118.99
65559;DHT22;52203;51.998;5.140;2023-01-29T05:58:46;5.33;118.99
65559;DHT22;52203;51.998;5.140;2023-01-29T06:01:17;5.35;118.99
65559;DHT22;52203;51.998;5.140;2023-01-29T06:03:43;5.31;118.99
65559;DHT22;52203;51.998;5.140;2023-01-29T06:06:09;5.31;118.99
65559;DHT22;52203;51.998;5.140;2023-01-29T06:08:35;5.28;118.99
65559;DHT22;52203;51.998;5.140;2023-01-29T06:11:01;5.26;118.99
65559;DHT22;52203;51.998;5.140;2023-01-29T06:13:27;5.30;118.99
65559;DHT22;52203;51.998;5.140;2023-01-29T06:15:53;5.28;118.99
65559;DHT22;52203;51.998;5.140;2023-01-29T06:18:18;5.28;118.99
65559;DHT22;52203;51.998;5.140;2023-01-29T06:20:44;5.26;118.99
65559;DHT22;52203;51.998;5.140;2023-01-29T06:23:10;5.23;118.99
65559;DHT22;52203;51.998;5.140;2023-01-29T06:25:35;5.24;118.99
65559;DHT22;52203;51.998;5.140;2023-01-29T06:28:01;5.23;118.99
65559;DHT22;52203;51.998;5.140;2023-01-29T06:30:26;5.23;118.99
65559;DHT22;52203;51.998;5.140;2023-01-29T06:32:57;5.25;118.99
65559;DHT22;52203;51.998;5.140;2023-01-29T06:35:23;5.24;118.99
65559;DHT22;52203;51.998;5.140;2023-01-29T06:37:49;5.25;118.99
65559;DHT22;52203;51.998;5.140;2023-01-29T06:40:15;5.27;118.99
65559;DHT22;52203;51.998;5.140;2023-01-29T06:42:40;5.27;118.99
65559;DHT22;52203;51.998;5.140;2023-01-29T06:45:06;5.24;118.99
65559;DHT22;52203;51.998;5.140;2023-01-29T06:47:32;5.24;118.99
65559;DHT22;52203;51.998;5.140;2023-01-29T06:49:58;5.24;118.99
65559;DHT22;52203;51.998;5.140;2023-01-29T06:52:23;5.25;118.99
65559;DHT22;52203;51.998;5.140;2023-01-29T06:54:56;5.23;118.99
65559;DHT22;52203;51.998;5.140;2023-01-29T06:57:22;5.23;118.99
65559;DHT22;52203;51.998;5.140;2023-01-29T06:59:47;5.22;118.99
65559;DHT22;52203;51.998;5.140;2023-01-29T07:02:13;5.23;118.99
65559;DHT22;52203;51.998;5.140;2023-01-29T07:04:39;5.25;118.99
65559;DHT22;52203;51.998;5.140;2023-01-29T07:07:05;5.26;118.99
65559;DHT22;52203;51.998;5.140;2023-01-29T07:09:37;5.24;118.99
65559;DHT22;52203;51.998;5.140;2023-01-29T07:12:02;5.24;118.99
65559;DHT22;52203;51.998;5.140;2023-01-29T07:14:29;5.23;118.99
65559;DHT22;52203;51.998;5.140;2023-01-29T07:16:54;5.23;118.99
65559;DHT22;52203;51.998;5.140;2023-01-29T07:19:20;5.21;118.99
65559;DHT22;52203;51.998;5.140;2023-01-29T07:21:45;5.18;118.99
65559;DHT22;52203;51.998;5.140;2023-01-29T07:24:11;5.18;118.99
65559;DHT22;52203;51.998;5.140;2023-01-29T07:26:36;5.19;118.99
65559;DHT22;52203;51.998;5.140;2023-01-29T07:29:03;5.18;118.99
65559;DHT22;52203;51.998;5.140;2023-01-29T07:31:29;5.17;118.99
65559;DHT22;52203;51.998;5.140;2023-01-29T07:33:54;5.16;118.99
65559;DHT22;52203;51.998;5.140;2023-01-29T07:36:20;5.18;118.99
65559;DHT22;52203;51.998;5.140;2023-01-29T07:38:49;5.18;118.99
65559;DHT22;52203;51.998;5.140;2023-01-29T07:41:16;5.18;118.99
65559;DHT22;52203;51.998;5.140;2023-01-29T07:43:41;5.18;118.99
65559;DHT22;52203;51.998;5.140;2023-01-29T07:46:07;5.18;118.99
65559;DHT22;52203;51.998;5.140;2023-01-29T07:48:32;5.19;118.99
65559;DHT22;52203;51.998;5.140;2023-01-29T07:50:58;5.17;118.99
65559;DHT22;52203;51.998;5.140;2023-01-29T07:53:25;5.18;118.99
65559;DHT22;52203;51.998;5.140;2023-01-29T07:55:50;5.17;118.99
65559;DHT22;52203;51.998;5.140;2023-01-29T07:58:16;5.16;118.99
65559;DHT22;52203;51.998;5.140;2023-01-29T08:00:42;5.17;118.99
65559;DHT22;52203;51.998;5.140;2023-01-29T08:03:13;5.15;118.99
65559;DHT22;52203;51.998;5.140;2023-01-29T08:05:41;5.15;118.99
65559;DHT22;52203;51.998;5.140;2023-01-29T08:08:06;5.11;118.99
65559;DHT22;52203;51.998;5.140;2023-01-29T08:10:33;5.11;118.99
65559;DHT22;52203;51.998;5.140;2023-01-29T08:13:00;5.15;118.99
65559;DHT22;52203;51.998;5.140;2023-01-29T08:15:26;5.11;118.99
65559;DHT22;52203;51.998;5.140;2023-01-29T08:17:53;5.10;118.99
65559;DHT22;52203;51.998;5.140;2023-01-29T08:20:19;5.09;118.99
65559;DHT22;52203;51.998;5.140;2023-01-29T08:22:45;5.07;118.99
65559;DHT22;52203;51.998;5.140;2023-01-29T08:25:11;5.07;118.99
65559;DHT22;52203;51.998;5.140;2023-01-29T08:27:37;5.05;118.99
65559;DHT22;52203;51.998;5.140;2023-01-29T08:30:04;5.07;118.99
65559;DHT22;52203;51.998;5.140;2023-01-29T08:32:30;5.07;118.99
65559;DHT22;52203;51.998;5.140;2023-01-29T08:34:56;5.08;118.99
65559;DHT22;52203;51.998;5.140;2023-01-29T08:37:21;5.07;118.99
65559;DHT22;52203;51.998;5.140;2023-01-29T08:39:47;5.06;118.99
65559;DHT22;52203;51.998;5.140;2023-01-29T08:42:12;5.03;118.99
65559;DHT22;52203;51.998;5.140;2023-01-29T08:44:38;5.06;118.99
65559;DHT22;52203;51.998;5.140;2023-01-29T08:47:04;5.04;118.99
65559;DHT22;52203;51.998;5.140;2023-01-29T08:49:29;5.06;118.99
65559;DHT22;52203;51.998;5.140;2023-01-29T08:51:55;5.05;118.99
65559;DHT22;52203;51.998;5.140;2023-01-29T08:54:22;5.05;118.99
65559;DHT22;52203;51.998;5.140;2023-01-29T08:56:48;5.05;118.99
65559;DHT22;52203;51.998;5.140;2023-01-29T08:59:14;5.07;118.99
65559;DHT22;52203;51.998;5.140;2023-01-29T09:01:40;5.05;118.99
65559;DHT22;52203;51.998;5.140;2023-01-29T09:04:05;5.03;118.99
65559;DHT22;52203;51.998;5.140;2023-01-29T09:06:31;5.03;118.99
65559;DHT22;52203;51.998;5.140;2023-01-29T09:08:57;5.04;118.99
65559;DHT22;52203;51.998;5.140;2023-01-29T09:11:22;5.04;118.99
65559;DHT22;52203;51.998;5.140;2023-01-29T09:13:48;5.02;118.99
65559;DHT22;52203;51.998;5.140;2023-01-29T09:16:13;5.04;118.99
65559;DHT22;52203;51.998;5.140;2023-01-29T09:18:39;5.02;118.99
65559;DHT22;52203;51.998;5.140;2023-01-29T09:21:05;5.06;118.99
65559;DHT22;52203;51.998;5.140;2023-01-29T09:23:30;5.07;118.99
65559;DHT22;52203;51.998;5.140;2023-01-29T09:25:56;5.05;118.99
65559;DHT22;52203;51.998;5.140;2023-01-29T09:28:22;5.04;118.99
65559;DHT22;52203;51.998;5.140;2023-01-29T09:30:47;5.04;118.99
65559;DHT22;52203;51.998;5.140;2023-01-29T09:33:13;5.03;118.99
65559;DHT22;52203;51.998;5.140;2023-01-29T09:35:41;5.00;118.99
65559;DHT22;52203;51.998;5.140;2023-01-29T09:38:09;5.02;118.99
65559;DHT22;52203;51.998;5.140;2023-01-29T09:43:04;5.02;118.99
65559;DHT22;52203;51.998;5.140;2023-01-29T09:45:30;5.02;118.99
65559;DHT22;52203;51.998;5.140;2023-01-29T09:48:02;5.01;118.99
65559;DHT22;52203;51.998;5.140;2023-01-29T09:50:44;5.04;118.99
65559;DHT22;52203;51.998;5.140;2023-01-29T09:53:38;5.05;118.99
65559;DHT22;52203;51.998;5.140;2023-01-29T09:58:39;5.09;118.99
65559;DHT22;52203;51.998;5.140;2023-01-29T10:03:59;5.08;118.99
65559;DHT22;52203;51.998;5.140;2023-01-29T10:12:03;5.10;118.99
65559;DHT22;52203;51.998;5.140;2023-01-29T10:22:50;5.45;118.99
65559;DHT22;52203;51.998;5.140;2023-01-29T10:25:21;5.50;118.99
65559;DHT22;52203;51.998;5.140;2023-01-29T10:27:50;5.64;118.99
65559;DHT22;52203;51.998;5.140;2023-01-29T10:32:50;5.78;118.99
65559;DHT22;52203;51.998;5.140;2023-01-29T10:35:21;5.85;118.99
65559;DHT22;52203;51.998;5.140;2023-01-29T10:37:51;5.95;118.99
65559;DHT22;52203;51.998;5.140;2023-01-29T10:43:11;6.21;118.99
65559;DHT22;52203;51.998;5.140;2023-01-29T10:45:57;6.24;118.99
65559;DHT22;52203;51.998;5.140;2023-01-29T10:51:23;6.31;118.99
65559;DHT22;52203;51.998;5.140;2023-01-29T10:56:52;6.43;118.99
65559;DHT22;52203;51.998;5.140;2023-01-29T11:02:14;6.50;118.99
65559;DHT22;52203;51.998;5.140;2023-01-29T11:04:42;6.53;118.99
65559;DHT22;52203;51.998;5.140;2023-01-29T11:07:07;6.58;118.99
65559;DHT22;52203;51.998;5.140;2023-01-29T11:12:14;6.67;118.99
65559;DHT22;52203;51.998;5.140;2023-01-29T11:14:47;6.71;118.99
65559;DHT22;52203;51.998;5.140;2023-01-29T11:17:21;6.86;118.99
65559;DHT22;52203;51.998;5.140;2023-01-29T11:19:48;6.82;118.99
65559;DHT22;52203;51.998;5.140;2023-01-29T11:22:19;6.80;118.99
65559;DHT22;52203;51.998;5.140;2023-01-29T11:25:05;6.79;118.99
65559;DHT22;52203;51.998;5.140;2023-01-29T11:27:33;6.97;118.99
65559;DHT22;52203;51.998;5.140;2023-01-29T11:30:00;6.95;118.99
65559;DHT22;52203;51.998;5.140;2023-01-29T11:32:32;7.00;118.99
65559;DHT22;52203;51.998;5.140;2023-01-29T11:37:41;7.20;118.99
65559;DHT22;52203;51.998;5.140;2023-01-29T11:42:48;7.18;118.99
65559;DHT22;52203;51.998;5.140;2023-01-29T11:45:27;7.23;118.99
65559;DHT22;52203;51.998;5.140;2023-01-29T11:47:57;7.10;118.99
65559;DHT22;52203;51.998;5.140;2023-01-29T11:50:28;7.22;118.99
65559;DHT22;52203;51.998;5.140;2023-01-29T11:53:00;7.23;118.99
65559;DHT22;52203;51.998;5.140;2023-01-29T11:55:31;7.22;118.99
65559;DHT22;52203;51.998;5.140;2023-01-29T11:58:15;7.33;118.99
65559;DHT22;52203;51.998;5.140;2023-01-29T12:00:46;7.31;118.99
65559;DHT22;52203;51.998;5.140;2023-01-29T12:03:20;7.32;118.99
65559;DHT22;52203;51.998;5.140;2023-01-29T12:06:01;7.31;118.99
65559;DHT22;52203;51.998;5.140;2023-01-29T12:08:38;7.46;118.99
65559;DHT22;52203;51.998;5.140;2023-01-29T12:11:12;7.33;118.99
65559;DHT22;52203;51.998;5.140;2023-01-29T12:13:40;7.46;118.99
65559;DHT22;52203;51.998;5.140;2023-01-29T12:16:16;7.53;118.99
65559;DHT22;52203;51.998;5.140;2023-01-29T12:21:51;7.43;118.99
65559;DHT22;52203;51.998;5.140;2023-01-29T12:32:38;7.31;118.99
65559;DHT22;52203;51.998;5.140;2023-01-29T12:35:20;7.12;118.99
65559;DHT22;52203;51.998;5.140;2023-01-29T12:40:19;7.41;118.99
65559;DHT22;52203;51.998;5.140;2023-01-29T12:42:51;7.38;118.99
65559;DHT22;52203;51.998;5.140;2023-01-29T12:45:20;7.42;118.99
65559;DHT22;52203;51.998;5.140;2023-01-29T12:47:56;7.43;118.99
65559;DHT22;52203;51.998;5.140;2023-01-29T12:52:56;7.46;118.99
65559;DHT22;52203;51.998;5.140;2023-01-29T12:55:26;7.42;118.99
65559;DHT22;52203;51.998;5.140;2023-01-29T12:58:02;7.42;118.99
65559;DHT22;52203;51.998;5.140;2023-01-29T13:00:32;7.35;118.99
65559;DHT22;52203;51.998;5.140;2023-01-29T13:03:23;7.47;118.99
65559;DHT22;52203;51.998;5.140;2023-01-29T13:06:11;7.42;118.99
65559;DHT22;52203;51.998;5.140;2023-01-29T13:08:39;7.40;118.99
65559;DHT22;52203;51.998;5.140;2023-01-29T13:11:15;7.34;118.99
65559;DHT22;52203;51.998;5.140;2023-01-29T13:13:55;7.41;118.99
65559;DHT22;52203;51.998;5.140;2023-01-29T13:16:26;7.44;118.99
65559;DHT22;52203;51.998;5.140;2023-01-29T13:18:59;7.49;118.99
65559;DHT22;52203;51.998;5.140;2023-01-29T13:21:33;7.48;118.99
65559;DHT22;52203;51.998;5.140;2023-01-29T13:24:08;7.50;118.99
65559;DHT22;52203;51.998;5.140;2023-01-29T13:26:35;7.57;118.99
65559;DHT22;52203;51.998;5.140;2023-01-29T13:29:01;7.56;118.99
65559;DHT22;52203;51.998;5.140;2023-01-29T13:31:36;7.57;118.99
65559;DHT22;52203;51.998;5.140;2023-01-29T13:36:50;7.59;118.99
65559;DHT22;52203;51.998;5.140;2023-01-29T13:39:36;7.58;118.99
65559;DHT22;52203;51.998;5.140;2023-01-29T13:42:47;7.54;118.99
65559;DHT22;52203;51.998;5.140;2023-01-29T13:45:32;7.56;118.99
65559;DHT22;52203;51.998;5.140;2023-01-29T13:48:40;7.58;118.99
65559;DHT22;52203;51.998;5.140;2023-01-29T13:51:10;7.59;118.99
65559;DHT22;52203;51.998;5.140;2023-01-29T13:53:42;7.55;118.99
65559;DHT22;52203;51.998;5.140;2023-01-29T13:56:44;7.54;118.99
65559;DHT22;52203;51.998;5.140;2023-01-29T13:59:23;7.60;118.99
65559;DHT22;52203;51.998;5.140;2023-01-29T14:06:47;7.62;118.99
65559;DHT22;52203;51.998;5.140;2023-01-29T14:11:58;7.58;118.99
65559;DHT22;52203;51.998;5.140;2023-01-29T14:17:17;7.54;118.99
65559;DHT22;52203;51.998;5.140;2023-01-29T14:19:51;7.58;118.99
65559;DHT22;52203;51.998;5.140;2023-01-29T14:22:22;7.43;118.99
65559;DHT22;52203;51.998;5.140;2023-01-29T14:24:52;7.39;118.99
65559;DHT22;52203;51.998;5.140;2023-01-29T14:27:21;7.32;118.99
65559;DHT22;52203;51.998;5.140;2023-01-29T14:29:47;7.15;118.99
65559;DHT22;52203;51.998;5.140;2023-01-29T14:32:20;7.03;118.99
65559;DHT22;52203;51.998;5.140;2023-01-29T14:34:48;6.85;118.99
65559;DHT22;52203;51.998;5.140;2023-01-29T14:39:51;6.78;118.99
65559;DHT22;52203;51.998;5.140;2023-01-29T14:42:25;6.86;118.99
65559;DHT22;52203;51.998;5.140;2023-01-29T14:44:55;6.88;118.99
65559;DHT22;52203;51.998;5.140;2023-01-29T14:53:03;6.82;118.99
65559;DHT22;52203;51.998;5.140;2023-01-29T15:01:17;6.76;118.99
65559;DHT22;52203;51.998;5.140;2023-01-29T15:12:33;6.67;118.99
65559;DHT22;52203;51.998;5.140;2023-01-29T15:15:15;6.70;118.99
65559;DHT22;52203;51.998;5.140;2023-01-29T15:17:54;6.67;118.99
65559;DHT22;52203;51.998;5.140;2023-01-29T15:22:51;6.61;118.99
65559;DHT22;52203;51.998;5.140;2023-01-29T15:25:17;6.60;118.99
65559;DHT22;52203;51.998;5.140;2023-01-29T15:27:45;6.56;118.99
65559;DHT22;52203;51.998;5.140;2023-01-29T15:30:19;6.51;118.99
65559;DHT22;52203;51.998;5.140;2023-01-29T15:32:46;6.58;118.99
65559;DHT22;52203;51.998;5.140;2023-01-29T15:35:34;6.50;118.99
65559;DHT22;52203;51.998;5.140;2023-01-29T15:38:22;6.53;118.99
65559;DHT22;52203;51.998;5.140;2023-01-29T15:40:58;6.51;118.99
65559;DHT22;52203;51.998;5.140;2023-01-29T15:45:55;6.46;118.99
65559;DHT22;52203;51.998;5.140;2023-01-29T15:48:30;6.43;118.99
65559;DHT22;52203;51.998;5.140;2023-01-29T15:50:57;6.43;118.99
65559;DHT22;52203;51.998;5.140;2023-01-29T15:53:33;6.40;118.99
65559;DHT22;52203;51.998;5.140;2023-01-29T15:56:00;6.35;118.99
65559;DHT22;52203;51.998;5.140;2023-01-29T15:58:31;6.36;118.99
65559;DHT22;52203;51.998;5.140;2023-01-29T16:00:58;6.33;118.99
65559;DHT22;52203;51.998;5.140;2023-01-29T16:03:27;6.26;118.99
65559;DHT22;52203;51.998;5.140;2023-01-29T16:05:55;6.24;118.99
65559;DHT22;52203;51.998;5.140;2023-01-29T16:08:21;6.28;118.99
65559;DHT22;52203;51.998;5.140;2023-01-29T16:11:08;6.24;118.99
65559;DHT22;52203;51.998;5.140;2023-01-29T16:13:35;6.20;118.99
65559;DHT22;52203;51.998;5.140;2023-01-29T16:18:43;6.26;118.99
65559;DHT22;52203;51.998;5.140;2023-01-29T16:21:13;6.22;118.99
65559;DHT22;52203;51.998;5.140;2023-01-29T16:23:47;6.22;118.99
65559;DHT22;52203;51.998;5.140;2023-01-29T16:26:30;6.20;118.99
65559;DHT22;52203;51.998;5.140;2023-01-29T16:29:03;6.22;118.99
65559;DHT22;52203;51.998;5.140;2023-01-29T16:31:30;6.23;118.99
65559;DHT22;52203;51.998;5.140;2023-01-29T16:33:57;6.19;118.99
65559;DHT22;52203;51.998;5.140;2023-01-29T16:36:28;6.23;118.99
65559;DHT22;52203;51.998;5.140;2023-01-29T16:39:04;6.17;118.99
65559;DHT22;52203;51.998;5.140;2023-01-29T16:41:32;6.19;118.99
65559;DHT22;52203;51.998;5.140;2023-01-29T16:46:48;6.20;118.99
65559;DHT22;52203;51.998;5.140;2023-01-29T16:51:54;6.17;118.99
65559;DHT22;52203;51.998;5.140;2023-01-29T16:54:23;6.17;118.99
65559;DHT22;52203;51.998;5.140;2023-01-29T16:56:54;6.19;118.99
65559;DHT22;52203;51.998;5.140;2023-01-29T16:59:21;6.17;118.99
65559;DHT22;52203;51.998;5.140;2023-01-29T17:01:52;6.14;118.99
65559;DHT22;52203;51.998;5.140;2023-01-29T17:04:19;6.21;118.99
65559;DHT22;52203;51.998;5.140;2023-01-29T17:06:47;6.15;118.99
65559;DHT22;52203;51.998;5.140;2023-01-29T17:09:23;6.15;118.99
65559;DHT22;52203;51.998;5.140;2023-01-29T17:11:54;6.12;118.99
65559;DHT22;52203;51.998;5.140;2023-01-29T17:14:22;6.11;118.99
65559;DHT22;52203;51.998;5.140;2023-01-29T17:17:15;6.04;118.99
65559;DHT22;52203;51.998;5.140;2023-01-29T17:19:40;6.02;118.99
65559;DHT22;52203;51.998;5.140;2023-01-29T17:22:06;6.06;118.99
65559;DHT22;52203;51.998;5.140;2023-01-29T17:24:40;6.06;118.99
65559;DHT22;52203;51.998;5.140;2023-01-29T17:27:05;6.05;118.99
65559;DHT22;52203;51.998;5.140;2023-01-29T17:29:32;5.97;118.99
65559;DHT22;52203;51.998;5.140;2023-01-29T17:31:57;6.06;118.99
65559;DHT22;52203;51.998;5.140;2023-01-29T17:34:26;6.08;118.99
65559;DHT22;52203;51.998;5.140;2023-01-29T17:36:51;6.07;118.99
65559;DHT22;52203;51.998;5.140;2023-01-29T17:39:20;6.11;118.99
65559;DHT22;52203;51.998;5.140;2023-01-29T17:41:51;6.12;118.99
65559;DHT22;52203;51.998;5.140;2023-01-29T17:44:17;6.10;118.99
65559;DHT22;52203;51.998;5.140;2023-01-29T17:46:42;6.11;118.99
65559;DHT22;52203;51.998;5.140;2023-01-29T17:49:22;6.13;118.99
65559;DHT22;52203;51.998;5.140;2023-01-29T17:51:48;6.19;118.99
65559;DHT22;52203;51.998;5.140;2023-01-29T17:54:14;6.25;118.99
65559;DHT22;52203;51.998;5.140;2023-01-29T17:56:40;6.21;118.99
65559;DHT22;52203;51.998;5.140;2023-01-29T17:59:15;6.23;118.99
65559;DHT22;52203;51.998;5.140;2023-01-29T18:01:42;6.24;118.99
65559;DHT22;52203;51.998;5.140;2023-01-29T18:04:08;6.25;118.99
65559;DHT22;52203;51.998;5.140;2023-01-29T18:06:34;6.27;118.99
65559;DHT22;52203;51.998;5.140;2023-01-29T18:09:00;6.23;118.99
65559;DHT22;52203;51.998;5.140;2023-01-29T18:11:26;6.22;118.99
65559;DHT22;52203;51.998;5.140;2023-01-29T18:13:53;6.19;118.99
65559;DHT22;52203;51.998;5.140;2023-01-29T18:16:18;6.24;118.99
65559;DHT22;52203;51.998;5.140;2023-01-29T18:18:47;6.25;118.99
65559;DHT22;52203;51.998;5.140;2023-01-29T18:21:12;6.30;118.99
65559;DHT22;52203;51.998;5.140;2023-01-29T18:23:38;6.27;118.99
65559;DHT22;52203;51.998;5.140;2023-01-29T18:26:05;6.25;118.99
65559;DHT22;52203;51.998;5.140;2023-01-29T18:28:32;6.24;118.99